sensor_id;sensor_type;location;lat;lon;timestamp;P1;durP1;ratioP1;P2;durP2;ratioP2
3278;SDS011;1651;50.940;6.888;2023-03-03T00:02:20;38.30;;;21.88;;
3278;SDS011;1651;50.940;6.888;2023-03-03T00:04:46;39.72;;;22.30;;
3278;SDS011;1651;50.940;6.888;2023-03-03T00:07:14;38.53;;;21.80;;
3278;SDS011;1651;50.940;6.888;2023-03-03T00:09:46;42.88;;;23.08;;
3278;SDS011;1651;50.940;6.888;2023-03-03T00:12:23;42.42;;;23.00;;
3278;SDS011;1651;50.940;6.888;2023-03-03T00:14:49;38.15;;;23.85;;
3278;SDS011;1651;50.940;6.888;2023-03-03T00:17:20;39.08;;;23.70;;
3278;SDS011;1651;50.940;6.888;2023-03-03T00:19:49;41.88;;;23.65;;
3278;SDS011;1651;50.940;6.888;2023-03-03T00:24:52;47.38;;;23.70;;
3278;SDS011;1651;50.940;6.888;2023-03-03T00:27:33;48.95;;;23.00;;
3278;SDS011;1651;50.940;6.888;2023-03-03T00:30:05;46.15;;;24.15;;
3278;SDS011;1651;50.940;6.888;2023-03-03T00:32:41;37.45;;;21.30;;
3278;SDS011;1651;50.940;6.888;2023-03-03T00:35:44;41.65;;;22.55;;
3278;SDS011;1651;50.940;6.888;2023-03-03T00:38:10;43.45;;;24.00;;
3278;SDS011;1651;50.940;6.888;2023-03-03T00:40:38;40.08;;;22.90;;
3278;SDS011;1651;50.940;6.888;2023-03-03T00:45:47;38.60;;;22.05;;
3278;SDS011;1651;50.940;6.888;2023-03-03T00:48:27;45.00;;;23.27;;
3278;SDS011;1651;50.940;6.888;2023-03-03T00:50:56;38.75;;;22.98;;
3278;SDS011;1651;50.940;6.888;2023-03-03T00:53:24;38.35;;;23.10;;
3278;SDS011;1651;50.940;6.888;2023-03-03T00:55:51;42.33;;;21.45;;
3278;SDS011;1651;50.940;6.888;2023-03-03T00:58:19;40.72;;;21.92;;
3278;SDS011;1651;50.940;6.888;2023-03-03T01:00:46;42.10;;;23.02;;
3278;SDS011;1651;50.940;6.888;2023-03-03T01:03:14;42.05;;;21.10;;
3278;SDS011;1651;50.940;6.888;2023-03-03T01:05:40;43.60;;;24.10;;
3278;SDS011;1651;50.940;6.888;2023-03-03T01:08:06;45.20;;;25.40;;
3278;SDS011;1651;50.940;6.888;2023-03-03T01:10:33;48.05;;;26.40;;
3278;SDS011;1651;50.940;6.888;2023-03-03T01:13:00;41.55;;;24.92;;
3278;SDS011;1651;50.940;6.888;2023-03-03T01:15:27;45.03;;;22.67;;
3278;SDS011;1651;50.940;6.888;2023-03-03T01:17:53;47.58;;;24.17;;
3278;SDS011;1651;50.940;6.888;2023-03-03T01:20:19;58.53;;;25.95;;
3278;SDS011;1651;50.940;6.888;2023-03-03T01:22:45;50.17;;;26.17;;
3278;SDS011;1651;50.940;6.888;2023-03-03T01:25:11;52.00;;;27.40;;
3278;SDS011;1651;50.940;6.888;2023-03-03T01:27:38;54.25;;;27.30;;
3278;SDS011;1651;50.940;6.888;2023-03-03T01:30:05;53.83;;;27.58;;
3278;SDS011;1651;50.940;6.888;2023-03-03T01:32:31;44.38;;;24.55;;
3278;SDS011;1651;50.940;6.888;2023-03-03T01:34:57;55.28;;;27.80;;
3278;SDS011;1651;50.940;6.888;2023-03-03T01:37:23;52.37;;;27.97;;
3278;SDS011;1651;50.940;6.888;2023-03-03T01:39:51;51.28;;;24.88;;
3278;SDS011;1651;50.940;6.888;2023-03-03T01:42:17;48.63;;;25.60;;
3278;SDS011;1651;50.940;6.888;2023-03-03T01:44:46;51.08;;;26.13;;
3278;SDS011;1651;50.940;6.888;2023-03-03T01:47:22;54.63;;;27.90;;
3278;SDS011;1651;50.940;6.888;2023-03-03T01:49:55;57.72;;;29.08;;
3278;SDS011;1651;50.940;6.888;2023-03-03T01:54:52;45.70;;;25.73;;
3278;SDS011;1651;50.940;6.888;2023-03-03T01:57:23;49.40;;;24.75;;
3278;SDS011;1651;50.940;6.888;2023-03-03T01:59:50;53.60;;;26.33;;
3278;SDS011;1651;50.940;6.888;2023-03-03T02:02:17;49.83;;;26.88;;
3278;SDS011;1651;50.940;6.888;2023-03-03T02:04:43;54.05;;;29.10;;
3278;SDS011;1651;50.940;6.888;2023-03-03T02:07:10;51.25;;;26.02;;
3278;SDS011;1651;50.940;6.888;2023-03-03T02:12:04;54.83;;;27.10;;
3278;SDS011;1651;50.940;6.888;2023-03-03T02:14:32;49.42;;;24.63;;
3278;SDS011;1651;50.940;6.888;2023-03-03T02:16:58;53.88;;;28.08;;
3278;SDS011;1651;50.940;6.888;2023-03-03T02:19:31;52.93;;;29.07;;
3278;SDS011;1651;50.940;6.888;2023-03-03T02:21:58;47.78;;;24.13;;
3278;SDS011;1651;50.940;6.888;2023-03-03T02:24:42;54.85;;;28.75;;
3278;SDS011;1651;50.940;6.888;2023-03-03T02:27:09;56.53;;;27.67;;
3278;SDS011;1651;50.940;6.888;2023-03-03T02:29:35;47.20;;;26.63;;
3278;SDS011;1651;50.940;6.888;2023-03-03T02:32:01;53.13;;;26.60;;
3278;SDS011;1651;50.940;6.888;2023-03-03T02:34:27;58.72;;;27.05;;
3278;SDS011;1651;50.940;6.888;2023-03-03T02:36:53;57.33;;;27.70;;
3278;SDS011;1651;50.940;6.888;2023-03-03T02:39:22;58.43;;;27.10;;
3278;SDS011;1651;50.940;6.888;2023-03-03T02:42:06;54.85;;;25.73;;
3278;SDS011;1651;50.940;6.888;2023-03-03T02:44:32;57.05;;;26.35;;
3278;SDS011;1651;50.940;6.888;2023-03-03T02:46:59;56.38;;;25.73;;
3278;SDS011;1651;50.940;6.888;2023-03-03T02:49:30;49.42;;;25.85;;
3278;SDS011;1651;50.940;6.888;2023-03-03T02:51:57;57.80;;;26.90;;
3278;SDS011;1651;50.940;6.888;2023-03-03T02:54:23;60.75;;;29.50;;
3278;SDS011;1651;50.940;6.888;2023-03-03T02:56:50;48.53;;;25.73;;
3278;SDS011;1651;50.940;6.888;2023-03-03T02:59:16;51.05;;;25.58;;
3278;SDS011;1651;50.940;6.888;2023-03-03T03:01:43;55.15;;;25.85;;
3278;SDS011;1651;50.940;6.888;2023-03-03T03:04:10;56.53;;;26.95;;
3278;SDS011;1651;50.940;6.888;2023-03-03T03:06:37;49.78;;;23.50;;
3278;SDS011;1651;50.940;6.888;2023-03-03T03:09:04;54.17;;;26.60;;
3278;SDS011;1651;50.940;6.888;2023-03-03T03:11:30;59.25;;;26.27;;
3278;SDS011;1651;50.940;6.888;2023-03-03T03:13:56;56.97;;;26.42;;
3278;SDS011;1651;50.940;6.888;2023-03-03T03:16:22;55.90;;;24.40;;
3278;SDS011;1651;50.940;6.888;2023-03-03T03:18:48;53.45;;;26.95;;
3278;SDS011;1651;50.940;6.888;2023-03-03T03:21:14;44.95;;;24.58;;
3278;SDS011;1651;50.940;6.888;2023-03-03T03:23:41;48.90;;;22.13;;
3278;SDS011;1651;50.940;6.888;2023-03-03T03:26:07;55.58;;;26.58;;
3278;SDS011;1651;50.940;6.888;2023-03-03T03:28:33;46.95;;;23.40;;
3278;SDS011;1651;50.940;6.888;2023-03-03T03:30:59;44.90;;;22.13;;
3278;SDS011;1651;50.940;6.888;2023-03-03T03:33:25;54.72;;;25.10;;
3278;SDS011;1651;50.940;6.888;2023-03-03T03:35:52;49.33;;;24.30;;
3278;SDS011;1651;50.940;6.888;2023-03-03T03:38:19;50.25;;;25.73;;
3278;SDS011;1651;50.940;6.888;2023-03-03T03:40:46;54.22;;;25.63;;
3278;SDS011;1651;50.940;6.888;2023-03-03T03:43:12;48.30;;;25.60;;
3278;SDS011;1651;50.940;6.888;2023-03-03T03:45:40;49.85;;;24.30;;
3278;SDS011;1651;50.940;6.888;2023-03-03T03:48:06;48.50;;;24.35;;
3278;SDS011;1651;50.940;6.888;2023-03-03T03:50:32;50.70;;;24.37;;
3278;SDS011;1651;50.940;6.888;2023-03-03T03:52:58;57.63;;;26.60;;
3278;SDS011;1651;50.940;6.888;2023-03-03T03:55:25;50.53;;;25.50;;
3278;SDS011;1651;50.940;6.888;2023-03-03T03:57:55;46.30;;;23.87;;
3278;SDS011;1651;50.940;6.888;2023-03-03T04:00:21;52.03;;;24.02;;
3278;SDS011;1651;50.940;6.888;2023-03-03T04:02:48;47.30;;;24.70;;
3278;SDS011;1651;50.940;6.888;2023-03-03T04:05:14;45.78;;;23.45;;
3278;SDS011;1651;50.940;6.888;2023-03-03T04:07:40;52.78;;;25.50;;
3278;SDS011;1651;50.940;6.888;2023-03-03T04:10:06;44.15;;;25.25;;
3278;SDS011;1651;50.940;6.888;2023-03-03T04:12:32;48.78;;;23.48;;
3278;SDS011;1651;50.940;6.888;2023-03-03T04:15:04;45.85;;;23.52;;
3278;SDS011;1651;50.940;6.888;2023-03-03T04:17:32;48.10;;;24.60;;
3278;SDS011;1651;50.940;6.888;2023-03-03T04:19:58;50.08;;;26.52;;
3278;SDS011;1651;50.940;6.888;2023-03-03T04:22:24;50.58;;;25.30;;
3278;SDS011;1651;50.940;6.888;2023-03-03T04:24:51;45.22;;;23.50;;
3278;SDS011;1651;50.940;6.888;2023-03-03T04:27:17;45.90;;;23.73;;
3278;SDS011;1651;50.940;6.888;2023-03-03T04:29:43;51.47;;;26.83;;
3278;SDS011;1651;50.940;6.888;2023-03-03T04:32:09;54.25;;;24.80;;
3278;SDS011;1651;50.940;6.888;2023-03-03T04:34:35;49.75;;;25.88;;
3278;SDS011;1651;50.940;6.888;2023-03-03T04:37:01;48.28;;;22.75;;
3278;SDS011;1651;50.940;6.888;2023-03-03T04:39:27;39.10;;;20.00;;
3278;SDS011;1651;50.940;6.888;2023-03-03T04:41:53;42.38;;;21.80;;
3278;SDS011;1651;50.940;6.888;2023-03-03T04:44:20;47.03;;;22.67;;
3278;SDS011;1651;50.940;6.888;2023-03-03T04:46:47;36.33;;;19.05;;
3278;SDS011;1651;50.940;6.888;2023-03-03T04:49:13;42.50;;;22.00;;
3278;SDS011;1651;50.940;6.888;2023-03-03T04:51:40;34.40;;;16.23;;
3278;SDS011;1651;50.940;6.888;2023-03-03T04:54:06;36.72;;;19.25;;
3278;SDS011;1651;50.940;6.888;2023-03-03T04:56:32;39.77;;;21.10;;
3278;SDS011;1651;50.940;6.888;2023-03-03T04:58:58;33.30;;;19.30;;
3278;SDS011;1651;50.940;6.888;2023-03-03T05:01:24;45.60;;;22.83;;
3278;SDS011;1651;50.940;6.888;2023-03-03T05:03:52;34.90;;;19.25;;
3278;SDS011;1651;50.940;6.888;2023-03-03T05:06:17;38.60;;;21.17;;
3278;SDS011;1651;50.940;6.888;2023-03-03T05:08:44;34.65;;;20.40;;
3278;SDS011;1651;50.940;6.888;2023-03-03T05:11:10;36.67;;;19.40;;
3278;SDS011;1651;50.940;6.888;2023-03-03T05:13:36;26.70;;;15.45;;
3278;SDS011;1651;50.940;6.888;2023-03-03T05:16:02;41.47;;;20.02;;
3278;SDS011;1651;50.940;6.888;2023-03-03T05:18:28;35.95;;;18.35;;
3278;SDS011;1651;50.940;6.888;2023-03-03T05:20:55;31.25;;;17.55;;
3278;SDS011;1651;50.940;6.888;2023-03-03T05:23:21;36.78;;;17.95;;
3278;SDS011;1651;50.940;6.888;2023-03-03T05:25:48;37.70;;;21.02;;
3278;SDS011;1651;50.940;6.888;2023-03-03T05:28:14;41.63;;;20.65;;
3278;SDS011;1651;50.940;6.888;2023-03-03T05:30:40;33.28;;;18.08;;
3278;SDS011;1651;50.940;6.888;2023-03-03T05:33:07;45.53;;;20.42;;
3278;SDS011;1651;50.940;6.888;2023-03-03T05:35:33;36.15;;;19.98;;
3278;SDS011;1651;50.940;6.888;2023-03-03T05:37:59;37.78;;;19.80;;
3278;SDS011;1651;50.940;6.888;2023-03-03T05:40:29;40.72;;;19.90;;
3278;SDS011;1651;50.940;6.888;2023-03-03T05:42:56;43.08;;;20.90;;
3278;SDS011;1651;50.940;6.888;2023-03-03T05:45:22;37.85;;;19.33;;
3278;SDS011;1651;50.940;6.888;2023-03-03T05:47:49;38.58;;;19.92;;
3278;SDS011;1651;50.940;6.888;2023-03-03T05:50:15;45.17;;;21.50;;
3278;SDS011;1651;50.940;6.888;2023-03-03T05:52:43;41.08;;;21.65;;
3278;SDS011;1651;50.940;6.888;2023-03-03T05:55:09;34.33;;;18.88;;
3278;SDS011;1651;50.940;6.888;2023-03-03T05:57:38;37.05;;;19.67;;
3278;SDS011;1651;50.940;6.888;2023-03-03T06:00:04;42.08;;;19.67;;
3278;SDS011;1651;50.940;6.888;2023-03-03T06:02:31;37.67;;;19.27;;
3278;SDS011;1651;50.940;6.888;2023-03-03T06:04:57;35.63;;;19.08;;
3278;SDS011;1651;50.940;6.888;2023-03-03T06:07:24;45.38;;;20.83;;
3278;SDS011;1651;50.940;6.888;2023-03-03T06:09:50;38.50;;;20.88;;
3278;SDS011;1651;50.940;6.888;2023-03-03T06:12:17;31.33;;;18.30;;
3278;SDS011;1651;50.940;6.888;2023-03-03T06:14:43;35.10;;;18.13;;
3278;SDS011;1651;50.940;6.888;2023-03-03T06:17:09;37.83;;;19.70;;
3278;SDS011;1651;50.940;6.888;2023-03-03T06:19:35;35.07;;;18.97;;
3278;SDS011;1651;50.940;6.888;2023-03-03T06:22:01;35.15;;;17.85;;
3278;SDS011;1651;50.940;6.888;2023-03-03T06:24:27;41.38;;;19.05;;
3278;SDS011;1651;50.940;6.888;2023-03-03T06:26:56;30.75;;;17.35;;
3278;SDS011;1651;50.940;6.888;2023-03-03T06:29:22;36.75;;;17.77;;
3278;SDS011;1651;50.940;6.888;2023-03-03T06:31:48;28.25;;;15.63;;
3278;SDS011;1651;50.940;6.888;2023-03-03T06:34:14;41.80;;;21.80;;
3278;SDS011;1651;50.940;6.888;2023-03-03T06:36:40;43.88;;;19.70;;
3278;SDS011;1651;50.940;6.888;2023-03-03T06:39:06;41.15;;;21.33;;
3278;SDS011;1651;50.940;6.888;2023-03-03T06:41:33;41.38;;;21.00;;
3278;SDS011;1651;50.940;6.888;2023-03-03T06:43:59;41.53;;;22.15;;
3278;SDS011;1651;50.940;6.888;2023-03-03T06:46:25;40.13;;;20.13;;
3278;SDS011;1651;50.940;6.888;2023-03-03T06:48:51;37.88;;;18.60;;
3278;SDS011;1651;50.940;6.888;2023-03-03T06:51:32;40.42;;;20.95;;
3278;SDS011;1651;50.940;6.888;2023-03-03T06:54:00;30.08;;;16.95;;
3278;SDS011;1651;50.940;6.888;2023-03-03T06:56:26;33.22;;;18.55;;
3278;SDS011;1651;50.940;6.888;2023-03-03T06:58:53;35.83;;;16.38;;
3278;SDS011;1651;50.940;6.888;2023-03-03T07:01:21;29.42;;;16.13;;
3278;SDS011;1651;50.940;6.888;2023-03-03T07:03:47;44.87;;;20.73;;
3278;SDS011;1651;50.940;6.888;2023-03-03T07:06:20;44.23;;;21.60;;
3278;SDS011;1651;50.940;6.888;2023-03-03T07:08:48;41.03;;;22.13;;
3278;SDS011;1651;50.940;6.888;2023-03-03T07:11:17;44.85;;;19.48;;
3278;SDS011;1651;50.940;6.888;2023-03-03T07:16:13;34.00;;;17.85;;
3278;SDS011;1651;50.940;6.888;2023-03-03T07:18:55;39.45;;;18.17;;
3278;SDS011;1651;50.940;6.888;2023-03-03T07:21:40;40.22;;;19.25;;
3278;SDS011;1651;50.940;6.888;2023-03-03T07:26:44;41.15;;;18.45;;
3278;SDS011;1651;50.940;6.888;2023-03-03T07:31:40;38.38;;;18.77;;
3278;SDS011;1651;50.940;6.888;2023-03-03T07:34:21;35.75;;;16.95;;
3278;SDS011;1651;50.940;6.888;2023-03-03T07:36:57;35.10;;;17.20;;
3278;SDS011;1651;50.940;6.888;2023-03-03T07:41:54;39.22;;;19.30;;
3278;SDS011;1651;50.940;6.888;2023-03-03T07:44:35;27.63;;;13.50;;
3278;SDS011;1651;50.940;6.888;2023-03-03T07:47:14;37.78;;;19.17;;
3278;SDS011;1651;50.940;6.888;2023-03-03T07:49:43;37.42;;;17.95;;
3278;SDS011;1651;50.940;6.888;2023-03-03T07:52:27;32.00;;;16.80;;
3278;SDS011;1651;50.940;6.888;2023-03-03T07:54:54;37.72;;;18.00;;
3278;SDS011;1651;50.940;6.888;2023-03-03T07:57:26;41.20;;;17.50;;
3278;SDS011;1651;50.940;6.888;2023-03-03T07:59:59;32.90;;;17.48;;
3278;SDS011;1651;50.940;6.888;2023-03-03T08:02:46;34.78;;;16.38;;
3278;SDS011;1651;50.940;6.888;2023-03-03T08:05:36;33.63;;;18.38;;
3278;SDS011;1651;50.940;6.888;2023-03-03T08:10:59;31.92;;;17.42;;
3278;SDS011;1651;50.940;6.888;2023-03-03T08:13:36;30.65;;;17.40;;
3278;SDS011;1651;50.940;6.888;2023-03-03T08:21:03;29.35;;;16.50;;
3278;SDS011;1651;50.940;6.888;2023-03-03T08:23:30;28.88;;;14.38;;
3278;SDS011;1651;50.940;6.888;2023-03-03T08:26:00;11.43;;;8.13;;
3278;SDS011;1651;50.940;6.888;2023-03-03T08:28:26;29.77;;;13.57;;
3278;SDS011;1651;50.940;6.888;2023-03-03T08:30:57;35.45;;;19.20;;
3278;SDS011;1651;50.940;6.888;2023-03-03T08:33:23;36.08;;;18.02;;
3278;SDS011;1651;50.940;6.888;2023-03-03T08:35:50;44.23;;;20.70;;
3278;SDS011;1651;50.940;6.888;2023-03-03T08:38:18;39.05;;;18.70;;
3278;SDS011;1651;50.940;6.888;2023-03-03T08:40:44;37.20;;;17.85;;
3278;SDS011;1651;50.940;6.888;2023-03-03T08:43:10;42.33;;;18.45;;
3278;SDS011;1651;50.940;6.888;2023-03-03T08:45:41;33.00;;;16.00;;
3278;SDS011;1651;50.940;6.888;2023-03-03T08:48:08;28.23;;;13.90;;
3278;SDS011;1651;50.940;6.888;2023-03-03T08:50:36;32.65;;;16.35;;
3278;SDS011;1651;50.940;6.888;2023-03-03T08:53:02;30.80;;;15.82;;
3278;SDS011;1651;50.940;6.888;2023-03-03T08:55:28;32.95;;;16.92;;
3278;SDS011;1651;50.940;6.888;2023-03-03T08:57:54;28.88;;;15.85;;
3278;SDS011;1651;50.940;6.888;2023-03-03T09:00:21;31.80;;;15.30;;
3278;SDS011;1651;50.940;6.888;2023-03-03T09:02:47;28.50;;;15.18;;
3278;SDS011;1651;50.940;6.888;2023-03-03T09:05:15;30.48;;;16.83;;
3278;SDS011;1651;50.940;6.888;2023-03-03T09:07:42;35.97;;;19.75;;
3278;SDS011;1651;50.940;6.888;2023-03-03T09:10:09;34.20;;;17.63;;
3278;SDS011;1651;50.940;6.888;2023-03-03T09:12:37;37.33;;;19.65;;
3278;SDS011;1651;50.940;6.888;2023-03-03T09:15:20;38.63;;;18.45;;
3278;SDS011;1651;50.940;6.888;2023-03-03T09:17:47;39.70;;;18.08;;
3278;SDS011;1651;50.940;6.888;2023-03-03T09:22:46;31.85;;;16.13;;
3278;SDS011;1651;50.940;6.888;2023-03-03T09:25:46;28.42;;;12.68;;
3278;SDS011;1651;50.940;6.888;2023-03-03T09:28:09;32.80;;;16.02;;
3278;SDS011;1651;50.940;6.888;2023-03-03T09:30:38;28.33;;;15.27;;
3278;SDS011;1651;50.940;6.888;2023-03-03T09:36:11;29.17;;;14.20;;
3278;SDS011;1651;50.940;6.888;2023-03-03T09:38:39;33.50;;;15.90;;
3278;SDS011;1651;50.940;6.888;2023-03-03T09:46:29;33.35;;;17.02;;
3278;SDS011;1651;50.940;6.888;2023-03-03T09:49:13;32.42;;;17.05;;
3278;SDS011;1651;50.940;6.888;2023-03-03T09:54:18;38.60;;;16.73;;
3278;SDS011;1651;50.940;6.888;2023-03-03T09:57:28;34.72;;;16.42;;
3278;SDS011;1651;50.940;6.888;2023-03-03T10:15:45;34.88;;;18.73;;
3278;SDS011;1651;50.940;6.888;2023-03-03T10:18:33;32.00;;;14.88;;
3278;SDS011;1651;50.940;6.888;2023-03-03T10:26:26;32.58;;;16.27;;
3278;SDS011;1651;50.940;6.888;2023-03-03T10:29:07;34.17;;;17.38;;
3278;SDS011;1651;50.940;6.888;2023-03-03T10:34:28;37.92;;;17.65;;
3278;SDS011;1651;50.940;6.888;2023-03-03T10:43:10;29.52;;;15.10;;
3278;SDS011;1651;50.940;6.888;2023-03-03T10:45:58;30.08;;;16.35;;
3278;SDS011;1651;50.940;6.888;2023-03-03T10:53:50;30.77;;;15.47;;
3278;SDS011;1651;50.940;6.888;2023-03-03T11:02:17;42.08;;;18.85;;
3278;SDS011;1651;50.940;6.888;2023-03-03T11:07:45;37.53;;;16.30;;
3278;SDS011;1651;50.940;6.888;2023-03-03T11:12:38;35.00;;;16.25;;
3278;SDS011;1651;50.940;6.888;2023-03-03T11:20:53;33.50;;;15.80;;
3278;SDS011;1651;50.940;6.888;2023-03-03T11:34:16;33.67;;;17.08;;
3278;SDS011;1651;50.940;6.888;2023-03-03T11:36:47;36.05;;;17.10;;
3278;SDS011;1651;50.940;6.888;2023-03-03T11:39:19;33.55;;;16.83;;
3278;SDS011;1651;50.940;6.888;2023-03-03T11:44:21;29.67;;;15.52;;
3278;SDS011;1651;50.940;6.888;2023-03-03T11:46:54;29.15;;;15.55;;
3278;SDS011;1651;50.940;6.888;2023-03-03T11:51:51;27.92;;;15.23;;
3278;SDS011;1651;50.940;6.888;2023-03-03T11:54:21;33.15;;;17.65;;
3278;SDS011;1651;50.940;6.888;2023-03-03T11:56:48;26.55;;;16.20;;
3278;SDS011;1651;50.940;6.888;2023-03-03T12:02:14;34.40;;;17.50;;
3278;SDS011;1651;50.940;6.888;2023-03-03T12:04:51;32.30;;;17.02;;
3278;SDS011;1651;50.940;6.888;2023-03-03T12:10:21;34.95;;;17.98;;
3278;SDS011;1651;50.940;6.888;2023-03-03T12:13:05;36.33;;;17.25;;
3278;SDS011;1651;50.940;6.888;2023-03-03T12:15:40;28.67;;;16.95;;
3278;SDS011;1651;50.940;6.888;2023-03-03T12:28:52;32.42;;;16.20;;
3278;SDS011;1651;50.940;6.888;2023-03-03T12:31:23;29.33;;;15.25;;
3278;SDS011;1651;50.940;6.888;2023-03-03T12:33:57;32.00;;;17.52;;
3278;SDS011;1651;50.940;6.888;2023-03-03T12:43:56;32.57;;;15.37;;
3278;SDS011;1651;50.940;6.888;2023-03-03T12:48:52;26.65;;;14.85;;
3278;SDS011;1651;50.940;6.888;2023-03-03T12:54:25;33.83;;;17.52;;
3278;SDS011;1651;50.940;6.888;2023-03-03T12:56:54;33.78;;;17.83;;
3278;SDS011;1651;50.940;6.888;2023-03-03T12:59:31;31.48;;;15.27;;
3278;SDS011;1651;50.940;6.888;2023-03-03T13:02:14;30.33;;;16.65;;
3278;SDS011;1651;50.940;6.888;2023-03-03T13:19:58;30.10;;;16.75;;
3278;SDS011;1651;50.940;6.888;2023-03-03T13:22:30;38.60;;;19.55;;
3278;SDS011;1651;50.940;6.888;2023-03-03T13:27:44;44.00;;;19.02;;
3278;SDS011;1651;50.940;6.888;2023-03-03T13:30:18;36.40;;;18.33;;
3278;SDS011;1651;50.940;6.888;2023-03-03T13:35:41;42.00;;;20.33;;
3278;SDS011;1651;50.940;6.888;2023-03-03T13:38:12;42.08;;;18.70;;
3278;SDS011;1651;50.940;6.888;2023-03-03T13:40:50;35.67;;;18.65;;
3278;SDS011;1651;50.940;6.888;2023-03-03T13:43:33;48.25;;;22.35;;
3278;SDS011;1651;50.940;6.888;2023-03-03T13:48:33;46.80;;;21.67;;
3278;SDS011;1651;50.940;6.888;2023-03-03T13:51:03;57.35;;;25.27;;
3278;SDS011;1651;50.940;6.888;2023-03-03T14:06:02;52.97;;;23.00;;
3278;SDS011;1651;50.940;6.888;2023-03-03T14:16:05;51.17;;;24.67;;
3278;SDS011;1651;50.940;6.888;2023-03-03T14:18:38;52.70;;;24.50;;
3278;SDS011;1651;50.940;6.888;2023-03-03T14:24:05;63.88;;;25.65;;
3278;SDS011;1651;50.940;6.888;2023-03-03T14:26:44;46.58;;;23.02;;
3278;SDS011;1651;50.940;6.888;2023-03-03T14:31:46;58.17;;;23.13;;
3278;SDS011;1651;50.940;6.888;2023-03-03T14:36:49;53.15;;;23.50;;
3278;SDS011;1651;50.940;6.888;2023-03-03T14:42:00;50.70;;;23.25;;
3278;SDS011;1651;50.940;6.888;2023-03-03T14:44:29;48.40;;;23.30;;
3278;SDS011;1651;50.940;6.888;2023-03-03T14:47:43;53.05;;;23.73;;
3278;SDS011;1651;50.940;6.888;2023-03-03T14:49:44;51.33;;;23.77;;
3278;SDS011;1651;50.940;6.888;2023-03-03T14:52:17;46.05;;;21.65;;
3278;SDS011;1651;50.940;6.888;2023-03-03T14:54:46;46.95;;;20.50;;
3278;SDS011;1651;50.940;6.888;2023-03-03T14:59:56;42.80;;;20.60;;
3278;SDS011;1651;50.940;6.888;2023-03-03T15:04:52;47.75;;;20.30;;
3278;SDS011;1651;50.940;6.888;2023-03-03T15:07:36;47.40;;;17.90;;
3278;SDS011;1651;50.940;6.888;2023-03-03T15:10:04;43.63;;;22.65;;
3278;SDS011;1651;50.940;6.888;2023-03-03T15:17:34;46.47;;;20.08;;
3278;SDS011;1651;50.940;6.888;2023-03-03T15:22:36;46.22;;;20.95;;
3278;SDS011;1651;50.940;6.888;2023-03-03T15:28:19;45.85;;;19.20;;
3278;SDS011;1651;50.940;6.888;2023-03-03T15:30:50;45.13;;;19.15;;
3278;SDS011;1651;50.940;6.888;2023-03-03T15:36:00;44.83;;;20.05;;
3278;SDS011;1651;50.940;6.888;2023-03-03T15:41:22;41.00;;;18.70;;
3278;SDS011;1651;50.940;6.888;2023-03-03T15:44:05;39.05;;;20.02;;
3278;SDS011;1651;50.940;6.888;2023-03-03T15:46:45;40.05;;;17.13;;
3278;SDS011;1651;50.940;6.888;2023-03-03T15:52:15;37.53;;;19.30;;
3278;SDS011;1651;50.940;6.888;2023-03-03T15:57:27;42.35;;;17.70;;
3278;SDS011;1651;50.940;6.888;2023-03-03T16:00:08;41.92;;;19.50;;
3278;SDS011;1651;50.940;6.888;2023-03-03T16:02:42;41.85;;;17.08;;
3278;SDS011;1651;50.940;6.888;2023-03-03T16:05:29;36.70;;;17.90;;
3278;SDS011;1651;50.940;6.888;2023-03-03T16:13:15;37.40;;;16.95;;
3278;SDS011;1651;50.940;6.888;2023-03-03T16:15:47;36.08;;;15.52;;
3278;SDS011;1651;50.940;6.888;2023-03-03T16:18:37;30.27;;;16.00;;
3278;SDS011;1651;50.940;6.888;2023-03-03T16:21:12;33.17;;;17.67;;
3278;SDS011;1651;50.940;6.888;2023-03-03T16:23:49;37.47;;;16.60;;
3278;SDS011;1651;50.940;6.888;2023-03-03T16:31:26;35.10;;;16.58;;
3278;SDS011;1651;50.940;6.888;2023-03-03T16:33:56;29.98;;;15.38;;
3278;SDS011;1651;50.940;6.888;2023-03-03T16:38:52;30.65;;;15.15;;
3278;SDS011;1651;50.940;6.888;2023-03-03T16:41:33;37.72;;;16.33;;
3278;SDS011;1651;50.940;6.888;2023-03-03T16:44:25;39.53;;;15.63;;
3278;SDS011;1651;50.940;6.888;2023-03-03T16:47:03;32.72;;;15.77;;
3278;SDS011;1651;50.940;6.888;2023-03-03T16:49:47;31.10;;;15.60;;
3278;SDS011;1651;50.940;6.888;2023-03-03T16:52:22;34.53;;;15.45;;
3278;SDS011;1651;50.940;6.888;2023-03-03T16:54:58;40.10;;;16.35;;
3278;SDS011;1651;50.940;6.888;2023-03-03T16:57:32;38.10;;;17.58;;
3278;SDS011;1651;50.940;6.888;2023-03-03T17:00:22;41.15;;;17.77;;
3278;SDS011;1651;50.940;6.888;2023-03-03T17:05:56;38.83;;;18.02;;
3278;SDS011;1651;50.940;6.888;2023-03-03T17:16:33;42.47;;;20.53;;
3278;SDS011;1651;50.940;6.888;2023-03-03T17:19:04;47.33;;;21.52;;
3278;SDS011;1651;50.940;6.888;2023-03-03T17:21:43;46.17;;;19.70;;
3278;SDS011;1651;50.940;6.888;2023-03-03T17:26:51;51.97;;;22.05;;
3278;SDS011;1651;50.940;6.888;2023-03-03T17:29:35;42.28;;;23.33;;
3278;SDS011;1651;50.940;6.888;2023-03-03T17:32:13;51.75;;;22.20;;
3278;SDS011;1651;50.940;6.888;2023-03-03T17:34:51;55.83;;;25.35;;
3278;SDS011;1651;50.940;6.888;2023-03-03T17:37:26;63.22;;;26.77;;
3278;SDS011;1651;50.940;6.888;2023-03-03T17:45:14;68.35;;;30.25;;
3278;SDS011;1651;50.940;6.888;2023-03-03T18:00:39;71.05;;;30.95;;
3278;SDS011;1651;50.940;6.888;2023-03-03T18:08:42;72.00;;;32.03;;
3278;SDS011;1651;50.940;6.888;2023-03-03T18:15:00;72.00;;;33.35;;
3278;SDS011;1651;50.940;6.888;2023-03-03T18:25:09;69.72;;;30.20;;
3278;SDS011;1651;50.940;6.888;2023-03-03T18:27:36;79.25;;;31.00;;
3278;SDS011;1651;50.940;6.888;2023-03-03T18:35:33;81.05;;;33.40;;
3278;SDS011;1651;50.940;6.888;2023-03-03T18:46:00;71.93;;;34.22;;
3278;SDS011;1651;50.940;6.888;2023-03-03T18:51:11;74.75;;;34.15;;
3278;SDS011;1651;50.940;6.888;2023-03-03T18:53:37;79.15;;;37.50;;
3278;SDS011;1651;50.940;6.888;2023-03-03T18:59:09;78.60;;;36.70;;
3278;SDS011;1651;50.940;6.888;2023-03-03T19:01:47;84.30;;;37.30;;
3278;SDS011;1651;50.940;6.888;2023-03-03T19:04:19;87.78;;;38.08;;
3278;SDS011;1651;50.940;6.888;2023-03-03T19:09:17;109.57;;;40.97;;
3278;SDS011;1651;50.940;6.888;2023-03-03T19:16:43;92.70;;;42.10;;
3278;SDS011;1651;50.940;6.888;2023-03-03T19:19:10;95.40;;;40.10;;
3278;SDS011;1651;50.940;6.888;2023-03-03T19:21:38;100.53;;;45.38;;
3278;SDS011;1651;50.940;6.888;2023-03-03T19:24:23;114.75;;;43.05;;
3278;SDS011;1651;50.940;6.888;2023-03-03T19:39:57;124.03;;;61.50;;
3278;SDS011;1651;50.940;6.888;2023-03-03T19:47:45;95.15;;;41.38;;
3278;SDS011;1651;50.940;6.888;2023-03-03T19:50:17;95.07;;;39.50;;
3278;SDS011;1651;50.940;6.888;2023-03-03T19:55:23;88.70;;;36.65;;
3278;SDS011;1651;50.940;6.888;2023-03-03T20:00:42;96.82;;;42.15;;
3278;SDS011;1651;50.940;6.888;2023-03-03T20:08:17;97.70;;;37.15;;
3278;SDS011;1651;50.940;6.888;2023-03-03T20:10:46;92.20;;;39.90;;
3278;SDS011;1651;50.940;6.888;2023-03-03T20:15:51;93.70;;;40.22;;
3278;SDS011;1651;50.940;6.888;2023-03-03T20:18:26;99.72;;;37.90;;
3278;SDS011;1651;50.940;6.888;2023-03-03T20:26:49;104.03;;;39.83;;
3278;SDS011;1651;50.940;6.888;2023-03-03T20:48:08;107.97;;;42.95;;
3278;SDS011;1651;50.940;6.888;2023-03-03T20:53:25;117.85;;;44.47;;
3278;SDS011;1651;50.940;6.888;2023-03-03T20:56:04;98.97;;;39.95;;
3278;SDS011;1651;50.940;6.888;2023-03-03T20:58:40;108.82;;;44.13;;
3278;SDS011;1651;50.940;6.888;2023-03-03T21:01:15;100.65;;;42.55;;
3278;SDS011;1651;50.940;6.888;2023-03-03T21:03:45;104.85;;;45.60;;
3278;SDS011;1651;50.940;6.888;2023-03-03T21:06:17;97.78;;;40.90;;
3278;SDS011;1651;50.940;6.888;2023-03-03T21:08:56;87.85;;;39.50;;
3278;SDS011;1651;50.940;6.888;2023-03-03T21:11:42;96.15;;;41.50;;
3278;SDS011;1651;50.940;6.888;2023-03-03T21:14:15;95.40;;;40.80;;
3278;SDS011;1651;50.940;6.888;2023-03-03T21:16:42;93.22;;;40.72;;